Time;durP1;ratioP1;P1;durP2;ratioP2;P2;SDS_P1;SDS_P2;PMS_P1;PMS_P2;Temp;Humidity;BMP_temperature;BMP_pressure;BME280_temperature;BME280_humidity;BME280_pressure;Samples;Min_cycle;Max_cycle;Signal;HPM_P1;HPM_P2
2023/12/11 00:01:55;;;;;;;10.38;3.13;;;17.00;61.10;;;;;;5052401;28;20549;-65
2023/12/11 00:04:21;;;;;;;6.10;3.10;;;17.00;61.20;;;;;;5051998;28;20178;-66
2023/12/11 00:06:46;;;;;;;7.05;3.25;;;17.00;61.20;;;;;;5051463;28;20175;-65
2023/12/11 00:09:13;;;;;;;6.75;2.85;;;17.00;60.60;;;;;;5052129;28;20626;-66
2023/12/11 00:11:38;;;;;;;6.47;2.35;;;17.00;61.10;;;;;;5052131;28;20187;-65
2023/12/11 00:14:04;;;;;;;7.53;2.80;;;16.90;61.20;;;;;;5051327;28;20636;-65
2023/12/11 00:16:30;;;;;;;5.80;2.58;;;16.90;60.90;;;;;;5051730;28;20178;-65
2023/12/11 00:18:56;;;;;;;7.50;2.90;;;16.90;61.00;;;;;;5052191;28;20185;-65
2023/12/11 00:21:22;;;;;;;6.55;2.88;;;16.90;60.90;;;;;;5050898;28;20175;-65
2023/12/11 00:23:47;;;;;;;9.98;2.88;;;16.90;60.80;;;;;;5051989;28;20186;-64
2023/12/11 00:26:13;;;;;;;6.93;2.53;;;16.90;60.60;;;;;;5051897;28;20549;-65
2023/12/11 00:28:38;;;;;;;7.43;2.72;;;16.90;60.60;;;;;;5051259;28;20175;-66
2023/12/11 00:31:07;;;;;;;6.00;2.60;;;16.90;60.60;;;;;;5052058;28;20214;-65
2023/12/11 00:33:34;;;;;;;7.90;2.78;;;16.80;60.70;;;;;;5051676;28;20179;-66
2023/12/11 00:35:59;;;;;;;8.43;2.80;;;16.80;60.70;;;;;;5051257;28;20179;-64
2023/12/11 00:38:25;;;;;;;6.40;2.70;;;16.80;60.40;;;;;;5051480;28;20258;-66
2023/12/11 00:40:50;;;;;;;7.15;2.83;;;16.80;60.50;;;;;;5051760;28;20180;-65
2023/12/11 00:43:18;;;;;;;6.55;2.97;;;16.80;60.30;;;;;;5050764;28;20285;-66
2023/12/11 00:45:43;;;;;;;9.25;3.40;;;16.80;60.40;;;;;;5051892;28;20175;-66
2023/12/11 00:48:09;;;;;;;6.22;2.83;;;16.80;60.40;;;;;;5051225;28;20184;-65
2023/12/11 00:50:35;;;;;;;9.07;3.25;;;16.80;60.40;;;;;;5051405;28;20245;-65
2023/12/11 00:53:00;;;;;;;8.98;3.05;;;16.80;60.40;;;;;;5051628;28;20178;-65
2023/12/11 00:55:26;;;;;;;8.55;2.78;;;16.70;60.20;;;;;;5050506;28;20230;-65
2023/12/11 00:57:51;;;;;;;8.63;2.92;;;16.70;60.30;;;;;;5051646;28;20532;-65
2023/12/11 01:00:17;;;;;;;6.72;2.78;;;16.70;60.20;;;;;;5051177;28;20178;-65
2023/12/11 01:02:43;;;;;;;6.75;2.70;;;16.70;61.00;;;;;;5051054;28;20175;-65
2023/12/11 01:05:09;;;;;;;9.77;3.38;;;16.70;60.30;;;;;;5054188;28;20201;-65
2023/12/11 01:07:35;;;;;;;8.95;2.97;;;16.70;60.20;;;;;;5055336;28;20697;-66
2023/12/11 01:10:01;;;;;;;8.32;3.03;;;16.70;60.30;;;;;;5054819;28;20317;-65
2023/12/11 01:12:26;;;;;;;7.97;2.88;;;16.70;60.20;;;;;;5055088;28;20198;-65
2023/12/11 01:14:52;;;;;;;8.48;2.78;;;16.70;60.20;;;;;;5055537;28;20636;-65
2023/12/11 01:17:17;;;;;;;9.48;3.10;;;16.70;60.30;;;;;;5054365;28;20175;-64
2023/12/11 01:19:43;;;;;;;7.88;3.10;;;16.70;60.20;;;;;;5055349;28;20179;-64
2023/12/11 01:22:08;;;;;;;9.35;3.42;;;16.70;60.20;;;;;;5055243;28;20182;-65
2023/12/11 01:24:34;;;;;;;9.75;2.65;;;16.70;60.10;;;;;;5054300;28;20183;-65
2023/12/11 01:26:59;;;;;;;7.53;3.60;;;16.60;60.10;;;;;;5055225;28;20179;-65
2023/12/11 01:29:28;;;;;;;10.27;3.40;;;16.60;60.10;;;;;;5054775;28;20201;-65
2023/12/11 01:31:53;;;;;;;8.35;3.35;;;16.60;60.10;;;;;;5054364;28;20189;-65
2023/12/11 01:34:19;;;;;;;7.68;3.08;;;16.60;60.10;;;;;;5054677;28;20183;-65
2023/12/11 01:36:45;;;;;;;8.00;2.85;;;16.60;60.10;;;;;;5055073;28;20171;-64
2023/12/11 01:39:10;;;;;;;8.88;3.40;;;16.60;60.10;;;;;;5054259;28;20266;-65
2023/12/11 01:41:36;;;;;;;7.70;3.15;;;16.60;60.00;;;;;;5054528;28;20179;-65
2023/12/11 01:44:03;;;;;;;10.45;3.35;;;16.60;60.00;;;;;;5055075;28;20667;-65
2023/12/11 01:46:29;;;;;;;10.55;3.55;;;16.60;60.00;;;;;;5054091;28;20232;-65
2023/12/11 01:48:54;;;;;;;11.05;3.40;;;16.60;60.00;;;;;;5053682;28;20183;-65
2023/12/11 01:51:20;;;;;;;6.50;3.10;;;16.60;59.90;;;;;;5053064;28;20207;-65
2023/12/11 01:53:47;;;;;;;8.07;2.92;;;16.60;60.00;;;;;;5054271;28;20219;-65
2023/12/11 01:56:13;;;;;;;11.25;3.75;;;16.60;59.90;;;;;;5054525;28;20198;-64
2023/12/11 01:58:38;;;;;;;9.38;3.47;;;16.50;59.90;;;;;;5052524;28;20552;-64
2023/12/11 02:01:04;;;;;;;7.28;3.20;;;16.60;59.90;;;;;;5053455;28;20555;-64
2023/12/11 02:03:30;;;;;;;9.43;3.10;;;16.50;59.90;;;;;;5053036;28;20233;-64
2023/12/11 02:05:55;;;;;;;10.20;3.65;;;16.50;59.90;;;;;;5053800;28;20172;-65
2023/12/11 02:08:21;;;;;;;7.82;2.92;;;16.50;59.90;;;;;;5054231;28;20175;-64
2023/12/11 02:10:46;;;;;;;10.32;3.35;;;16.50;59.90;;;;;;5054263;28;20230;-66
2023/12/11 02:13:13;;;;;;;8.75;3.25;;;16.50;59.90;;;;;;5053863;28;20241;-66
2023/12/11 02:15:40;;;;;;;11.93;3.35;;;16.50;60.80;;;;;;5053959;28;20187;-65
2023/12/11 02:18:06;;;;;;;8.57;3.13;;;16.50;59.90;;;;;;5054361;28;20258;-65
2023/12/11 02:20:32;;;;;;;7.28;3.10;;;16.40;59.90;;;;;;5053269;28;20175;-64
2023/12/11 02:22:58;;;;;;;11.27;3.70;;;16.50;59.90;;;;;;5054079;28;20593;-65
2023/12/11 02:25:24;;;;;;;7.70;3.00;;;16.50;59.90;;;;;;5052624;28;20175;-65
2023/12/11 02:27:49;;;;;;;10.13;3.05;;;16.50;59.90;;;;;;5052154;28;20618;-65
2023/12/11 02:30:15;;;;;;;12.93;4.22;;;16.40;59.80;;;;;;5035978;28;20213;-65
2023/12/11 02:32:40;;;;;;;6.15;2.80;;;16.50;59.90;;;;;;5054154;28;20598;-65
2023/12/11 02:35:06;;;;;;;6.75;2.90;;;16.40;59.80;;;;;;5053212;28;20518;-65
2023/12/11 02:37:32;;;;;;;7.75;3.05;;;16.40;59.80;;;;;;5053589;28;20183;-65
2023/12/11 02:39:57;;;;;;;12.05;3.47;;;16.40;59.90;;;;;;5053830;28;20193;-65
2023/12/11 02:42:23;;;;;;;7.60;3.10;;;16.40;59.80;;;;;;5052769;28;20174;-65
2023/12/11 02:44:48;;;;;;;7.72;3.25;;;16.40;59.90;;;;;;5053895;28;20175;-65
2023/12/11 02:47:14;;;;;;;8.43;3.35;;;16.40;59.90;;;;;;5053508;28;20646;-65
2023/12/11 02:49:39;;;;;;;12.35;3.22;;;16.40;60.00;;;;;;5052952;28;20227;-65
2023/12/11 02:52:05;;;;;;;9.52;3.40;;;16.40;59.90;;;;;;5053594;28;20638;-65
2023/12/11 02:54:31;;;;;;;11.10;3.40;;;16.40;60.00;;;;;;5053130;28;20229;-66
2023/12/11 02:56:56;;;;;;;8.10;3.35;;;16.40;59.90;;;;;;5052773;28;20618;-65
2023/12/11 02:59:22;;;;;;;9.32;3.45;;;16.40;60.80;;;;;;5053087;28;20206;-65
2023/12/11 03:01:48;;;;;;;9.13;3.20;;;16.40;59.90;;;;;;5052568;28;20183;-65
2023/12/11 03:04:13;;;;;;;10.07;3.25;;;16.40;59.90;;;;;;5053476;28;20175;-65
2023/12/11 03:06:39;;;;;;;10.88;3.25;;;16.40;60.00;;;;;;5053246;28;20175;-66
2023/12/11 03:09:05;;;;;;;11.07;3.92;;;16.40;60.00;;;;;;5052455;28;20179;-65
2023/12/11 03:11:31;;;;;;;10.18;3.67;;;16.40;60.00;;;;;;5052944;28;20183;-65
2023/12/11 03:13:56;;;;;;;9.20;3.85;;;16.40;60.00;;;;;;5053371;28;20179;-64
2023/12/11 03:16:22;;;;;;;9.95;3.38;;;16.40;60.00;;;;;;5052291;28;20615;-65
2023/12/11 03:18:47;;;;;;;10.73;4.53;;;16.30;60.00;;;;;;5053309;28;20182;-65
2023/12/11 03:21:13;;;;;;;7.15;2.92;;;16.30;60.00;;;;;;5053106;28;20700;-65
2023/12/11 03:23:39;;;;;;;7.60;3.38;;;16.30;60.10;;;;;;5052389;28;20179;-65
2023/12/11 03:26:04;;;;;;;7.35;3.03;;;16.30;60.00;;;;;;5053205;28;20175;-65
2023/12/11 03:28:30;;;;;;;7.78;2.78;;;16.30;60.00;;;;;;5052046;28;20634;-65
2023/12/11 03:30:55;;;;;;;7.40;3.13;;;16.30;60.00;;;;;;5052328;28;20221;-65
2023/12/11 03:33:21;;;;;;;7.28;2.80;;;16.30;60.10;;;;;;5052698;28;20648;-65
2023/12/11 03:35:46;;;;;;;7.93;3.38;;;16.30;60.10;;;;;;5052829;28;20182;-65
2023/12/11 03:38:12;;;;;;;11.43;4.22;;;16.30;60.10;;;;;;5051923;28;20168;-65
2023/12/11 03:40:38;;;;;;;8.23;3.80;;;16.30;60.10;;;;;;5052567;28;20175;-64
2023/12/11 03:43:03;;;;;;;9.88;3.22;;;16.30;60.10;;;;;;5052621;28;20692;-65
2023/12/11 03:45:29;;;;;;;11.18;3.20;;;16.30;60.10;;;;;;5051709;28;20206;-65
2023/12/11 03:47:54;;;;;;;10.65;3.45;;;16.20;60.00;;;;;;5052647;28;20626;-65
2023/12/11 03:50:26;;;;;;;8.40;3.00;;;16.30;60.20;;;;;;5052662;28;20257;-65
2023/12/11 03:52:51;;;;;;;11.20;3.17;;;16.30;60.10;;;;;;5051677;28;20198;-66
2023/12/11 03:55:17;;;;;;;9.38;3.60;;;16.30;60.20;;;;;;5051237;28;20261;-65
2023/12/11 03:57:42;;;;;;;8.93;3.33;;;16.20;60.10;;;;;;5051701;28;20163;-65
2023/12/11 04:00:09;;;;;;;8.63;3.03;;;16.20;60.10;;;;;;5050956;28;20579;-64
2023/12/11 04:02:34;;;;;;;5.25;2.63;;;16.20;60.10;;;;;;5051376;28;20266;-65
2023/12/11 04:05:00;;;;;;;6.93;2.97;;;16.20;60.10;;;;;;5050947;28;20690;-66
2023/12/11 04:07:25;;;;;;;10.43;3.35;;;16.20;60.10;;;;;;5050988;28;20175;-65
2023/12/11 04:09:51;;;;;;;9.50;3.60;;;16.20;60.10;;;;;;5051606;28;20302;-66
2023/12/11 04:12:16;;;;;;;7.85;3.05;;;16.20;60.10;;;;;;5050551;28;20668;-65
2023/12/11 04:14:42;;;;;;;10.23;3.00;;;16.20;60.10;;;;;;5051374;28;20191;-65
2023/12/11 04:17:10;;;;;;;9.95;3.17;;;16.20;60.10;;;;;;5051097;28;20622;-65
2023/12/11 04:19:36;;;;;;;5.78;2.70;;;16.20;60.10;;;;;;5050272;28;20228;-65
2023/12/11 04:22:01;;;;;;;7.05;2.42;;;16.20;60.10;;;;;;5051173;28;20536;-65
2023/12/11 04:24:27;;;;;;;6.45;3.05;;;16.20;60.20;;;;;;5051113;28;20175;-65
2023/12/11 04:26:53;;;;;;;6.88;3.35;;;16.20;60.10;;;;;;5050582;28;20674;-65
2023/12/11 04:29:18;;;;;;;7.68;2.58;;;16.20;60.20;;;;;;5050830;28;20175;-65
2023/12/11 04:31:44;;;;;;;9.10;2.78;;;16.20;60.20;;;;;;5051188;28;20183;-66
2023/12/11 04:34:09;;;;;;;9.50;2.55;;;16.20;60.20;;;;;;5050539;28;20535;-66
2023/12/11 04:36:35;;;;;;;7.65;2.58;;;16.10;60.20;;;;;;5050792;28;20179;-65
2023/12/11 04:39:00;;;;;;;6.25;2.83;;;16.10;60.20;;;;;;5049720;28;20211;-65
2023/12/11 04:41:26;;;;;;;5.80;2.35;;;16.10;60.20;;;;;;5050105;28;20175;-65
2023/12/11 04:43:51;;;;;;;9.75;3.65;;;16.20;60.20;;;;;;5050954;28;20694;-65
2023/12/11 04:46:17;;;;;;;6.75;2.97;;;16.10;60.20;;;;;;5050653;28;20178;-65
2023/12/11 04:48:43;;;;;;;6.22;2.50;;;16.10;60.20;;;;;;5050242;28;20175;-65
2023/12/11 04:51:08;;;;;;;5.93;2.88;;;16.20;60.20;;;;;;5050690;28;20238;-65
2023/12/11 04:53:34;;;;;;;6.90;2.70;;;16.20;60.20;;;;;;5012324;28;1099313;-66
2023/12/11 04:56:05;;;;;;;7.25;3.17;;;16.10;60.20;;;;;;5051242;28;20229;-65
2023/12/11 04:58:31;;;;;;;6.68;2.65;;;16.10;60.20;;;;;;5051418;28;20183;-65
2023/12/11 05:00:56;;;;;;;5.85;2.72;;;16.10;61.10;;;;;;5051673;28;20229;-65
2023/12/11 05:03:22;;;;;;;8.55;2.92;;;16.10;60.20;;;;;;5050643;28;20175;-65
2023/12/11 05:05:47;;;;;;;6.93;2.47;;;16.10;61.10;;;;;;5051522;28;20179;-66
2023/12/11 05:08:13;;;;;;;7.55;2.97;;;16.10;60.30;;;;;;5051783;28;20186;-66
2023/12/11 05:10:39;;;;;;;8.45;3.05;;;16.10;60.20;;;;;;5050660;28;20570;-66
2023/12/11 05:13:04;;;;;;;8.43;2.88;;;16.10;61.20;;;;;;5051500;28;20199;-65
2023/12/11 05:15:30;;;;;;;7.85;2.85;;;16.10;60.30;;;;;;5050595;28;20254;-65
2023/12/11 05:17:55;;;;;;;12.05;2.97;;;16.10;60.30;;;;;;5051366;28;20171;-65
2023/12/11 05:20:21;;;;;;;7.97;3.30;;;16.10;60.30;;;;;;5051108;28;20186;-65
2023/12/11 05:22:46;;;;;;;7.57;2.60;;;16.10;60.30;;;;;;5050850;28;20634;-65
2023/12/11 05:25:12;;;;;;;6.28;2.55;;;16.10;60.30;;;;;;5051364;28;20175;-65
2023/12/11 05:27:38;;;;;;;7.72;3.03;;;16.10;60.30;;;;;;5051150;28;20225;-66
2023/12/11 05:30:04;;;;;;;6.68;2.47;;;16.10;60.30;;;;;;5050622;28;20211;-65
2023/12/11 05:32:29;;;;;;;8.27;2.92;;;16.10;60.30;;;;;;5050945;28;20658;-65
2023/12/11 05:34:55;;;;;;;9.27;2.85;;;16.10;60.40;;;;;;5051241;28;20213;-65
2023/12/11 05:37:20;;;;;;;5.65;2.65;;;16.10;60.40;;;;;;5050379;28;20638;-65
2023/12/11 05:39:46;;;;;;;8.10;2.60;;;16.10;60.40;;;;;;5051373;28;20220;-65
2023/12/11 05:42:11;;;;;;;10.63;3.30;;;16.10;60.50;;;;;;5051218;28;20172;-65
2023/12/11 05:44:37;;;;;;;6.70;2.90;;;16.00;60.30;;;;;;5050229;28;20167;-65
2023/12/11 05:47:03;;;;;;;7.03;2.63;;;16.00;61.30;;;;;;5051356;28;20203;-65
2023/12/11 05:49:28;;;;;;;7.53;2.95;;;16.10;60.40;;;;;;5050654;28;20638;-65
2023/12/11 05:51:56;;;;;;;9.98;3.45;;;16.00;61.30;;;;;;5053889;28;20237;-65
2023/12/11 05:54:21;;;;;;;5.90;2.40;;;16.00;60.40;;;;;;5054293;28;20694;-66
2023/12/11 05:56:47;;;;;;;9.40;3.08;;;16.00;61.20;;;;;;5054768;28;20214;-65
2023/12/11 05:59:12;;;;;;;8.88;3.15;;;16.00;60.50;;;;;;5053890;28;20175;-65
2023/12/11 06:01:38;;;;;;;6.18;2.42;;;16.00;60.40;;;;;;5054228;28;20268;-65
2023/12/11 06:04:04;;;;;;;8.57;2.92;;;16.00;60.50;;;;;;5054441;28;20179;-66
2023/12/11 06:06:29;;;;;;;6.00;2.55;;;16.00;60.50;;;;;;5052548;28;20533;-66
2023/12/11 06:08:55;;;;;;;8.23;2.72;;;16.00;61.30;;;;;;5054589;28;20202;-66
2023/12/11 06:11:20;;;;;;;8.55;3.05;;;15.90;60.40;;;;;;5054116;28;20863;-65
2023/12/11 06:13:46;;;;;;;7.07;2.75;;;16.00;60.50;;;;;;5053646;28;20178;-65
2023/12/11 06:16:13;;;;;;;5.60;2.72;;;16.00;60.50;;;;;;5054172;28;20171;-65
2023/12/11 06:18:39;;;;;;;7.32;3.25;;;16.00;60.50;;;;;;5053476;28;20179;-65
2023/12/11 06:21:04;;;;;;;6.15;2.65;;;15.90;60.40;;;;;;5054413;28;20179;-65
2023/12/11 06:23:30;;;;;;;8.75;3.15;;;15.90;60.40;;;;;;5053684;28;20179;-65
2023/12/11 06:25:56;;;;;;;7.15;2.92;;;15.90;60.50;;;;;;5053358;28;20186;-65
2023/12/11 06:28:21;;;;;;;7.82;2.55;;;15.90;60.50;;;;;;5053823;28;20255;-66
2023/12/11 06:30:47;;;;;;;8.10;2.90;;;16.00;60.60;;;;;;5054016;28;20670;-65
2023/12/11 06:33:12;;;;;;;8.90;3.30;;;15.90;60.60;;;;;;5053139;28;20213;-65
2023/12/11 06:35:38;;;;;;;10.30;3.55;;;15.90;60.50;;;;;;5053474;28;20182;-65
2023/12/11 06:38:03;;;;;;;10.48;3.10;;;15.90;60.50;;;;;;5054083;28;20392;-65
2023/12/11 06:40:29;;;;;;;8.43;3.40;;;15.90;60.60;;;;;;5052794;28;20202;-65
2023/12/11 06:42:55;;;;;;;7.50;3.08;;;15.90;61.40;;;;;;5053923;28;20202;-65
2023/12/11 06:45:20;;;;;;;8.13;3.22;;;15.90;60.60;;;;;;5053627;28;20528;-65
2023/12/11 06:47:46;;;;;;;7.55;2.78;;;15.90;60.60;;;;;;5052911;28;20250;-65
2023/12/11 06:50:12;;;;;;;7.03;2.95;;;15.90;60.50;;;;;;5053783;28;20210;-65
2023/12/11 06:52:38;;;;;;;7.43;2.40;;;15.90;60.60;;;;;;5053479;28;20176;-66
2023/12/11 06:55:04;;;;;;;7.35;2.67;;;15.90;61.40;;;;;;5052646;28;20269;-65
2023/12/11 06:57:30;;;;;;;6.28;3.00;;;15.90;60.60;;;;;;5053110;28;20642;-65
2023/12/11 06:59:55;;;;;;;7.55;2.67;;;15.90;60.60;;;;;;5053501;28;20186;-65
2023/12/11 07:02:21;;;;;;;9.38;2.70;;;15.90;61.40;;;;;;5051416;28;20645;-65
2023/12/11 07:04:46;;;;;;;7.20;2.80;;;15.90;60.60;;;;;;5053357;28;20179;-65
2023/12/11 07:07:12;;;;;;;6.97;2.63;;;15.90;60.80;;;;;;5053336;28;20175;-65
2023/12/11 07:09:38;;;;;;;10.52;3.40;;;15.90;60.70;;;;;;5052321;28;20242;-65
2023/12/11 07:12:08;;;;;;;7.32;3.00;;;15.90;60.60;;;;;;5053321;28;20171;-65
2023/12/11 07:14:33;;;;;;;6.15;2.47;;;16.00;60.50;;;;;;5052925;28;20179;-65
2023/12/11 07:16:59;;;;;;;7.15;2.75;;;16.00;60.50;;;;;;5052309;28;20190;-64
2023/12/11 07:19:26;;;;;;;7.15;2.80;;;16.00;60.40;;;;;;5052744;28;20163;-64
2023/12/11 07:21:52;;;;;;;7.82;2.90;;;16.10;60.40;;;;;;5053078;28;20191;-64
2023/12/11 07:24:17;;;;;;;6.07;2.58;;;16.20;60.50;;;;;;5052191;28;20597;-65
2023/12/11 07:26:43;;;;;;;7.75;2.65;;;16.20;60.40;;;;;;5052981;28;20179;-65
2023/12/11 07:29:09;;;;;;;5.63;2.45;;;16.20;60.20;;;;;;5052224;28;20171;-65
2023/12/11 07:31:34;;;;;;;5.88;2.65;;;16.30;60.20;;;;;;5052427;28;20219;-65
2023/12/11 07:34:00;;;;;;;7.75;2.60;;;16.40;60.10;;;;;;5052649;28;20256;-65
2023/12/11 07:36:26;;;;;;;7.63;2.58;;;16.50;60.00;;;;;;5051940;28;20179;-65
2023/12/11 07:38:51;;;;;;;5.88;2.35;;;16.50;59.90;;;;;;5052742;28;20186;-65
2023/12/11 07:41:23;;;;;;;6.75;2.65;;;16.60;59.90;;;;;;5052294;28;20183;-65
2023/12/11 07:43:49;;;;;;;7.07;2.85;;;16.60;59.80;;;;;;5051971;28;20699;-64
2023/12/11 07:46:18;;;;;;;6.22;2.25;;;16.70;59.70;;;;;;5052332;28;20199;-65
2023/12/11 07:48:44;;;;;;;5.60;2.28;;;16.70;59.60;;;;;;5052823;28;20171;-65
2023/12/11 07:51:19;;;;;;;5.00;2.30;;;16.70;59.60;;;;;;5051874;28;20260;-65
2023/12/11 07:53:46;;;;;;;7.57;2.55;;;16.70;59.60;;;;;;5052468;28;20228;-65
2023/12/11 07:56:21;;;;;;;7.05;2.45;;;16.70;60.40;;;;;;5052516;28;20202;-65
2023/12/11 07:58:46;;;;;;;5.95;2.17;;;16.70;59.60;;;;;;5051643;28;20253;-65
2023/12/11 08:01:12;;;;;;;5.07;2.25;;;16.80;59.60;;;;;;5052556;28;20737;-65
2023/12/11 08:03:37;;;;;;;4.75;2.22;;;16.80;59.60;;;;;;5052005;28;20225;-65
2023/12/11 08:06:03;;;;;;;4.00;2.28;;;16.80;59.50;;;;;;5051719;28;20163;-66
2023/12/11 08:08:29;;;;;;;4.47;2.10;;;16.90;59.50;;;;;;5051865;28;20190;-66
2023/12/11 08:10:54;;;;;;;5.35;2.25;;;16.90;59.40;;;;;;5052105;28;20673;-65
2023/12/11 08:13:20;;;;;;;5.07;2.30;;;16.90;59.40;;;;;;5050771;28;20182;-65
2023/12/11 08:15:45;;;;;;;5.60;2.20;;;16.90;59.40;;;;;;5051973;28;20178;-65
2023/12/11 08:18:11;;;;;;;4.07;1.98;;;16.90;59.30;;;;;;5051714;28;20186;-65
2023/12/11 08:20:37;;;;;;;4.25;1.95;;;16.90;59.30;;;;;;5051206;28;20549;-65
2023/12/11 08:23:03;;;;;;;5.47;2.13;;;16.90;59.30;;;;;;5051942;28;20202;-64
2023/12/11 08:25:28;;;;;;;6.22;2.20;;;16.90;59.30;;;;;;5050975;28;20208;-65
2023/12/11 08:27:54;;;;;;;5.15;2.13;;;16.90;59.40;;;;;;5052027;28;20175;-63
2023/12/11 08:30:19;;;;;;;7.68;2.45;;;16.90;59.60;;;;;;5051930;28;20615;-63
2023/12/11 08:32:45;;;;;;;6.60;2.28;;;16.80;60.50;;;;;;5051304;28;20182;-64
2023/12/11 08:35:10;;;;;;;4.90;1.98;;;16.80;60.20;;;;;;5052073;28;20294;-63
2023/12/11 08:37:36;;;;;;;7.25;1.90;;;16.70;60.10;;;;;;5051735;28;20536;-63
2023/12/11 08:40:04;;;;;;;5.75;2.38;;;16.70;60.20;;;;;;5051248;28;20172;-63
2023/12/11 08:42:31;;;;;;;4.80;1.92;;;16.60;60.30;;;;;;5051571;28;20184;-63
2023/12/11 08:44:56;;;;;;;8.63;2.30;;;16.60;60.40;;;;;;5052166;28;20189;-63
2023/12/11 08:47:22;;;;;;;4.45;1.80;;;16.60;61.40;;;;;;5050988;28;20172;-63
2023/12/11 08:49:48;;;;;;;5.07;1.95;;;16.60;60.80;;;;;;5052004;28;20202;-63
2023/12/11 08:52:13;;;;;;;4.70;1.98;;;16.60;60.90;;;;;;5051660;28;20708;-63
2023/12/11 08:54:39;;;;;;;3.65;1.70;;;16.60;61.00;;;;;;5050975;28;20226;-63
2023/12/11 08:57:05;;;;;;;4.93;1.90;;;16.60;60.90;;;;;;5051769;28;20688;-63
2023/12/11 08:59:32;;;;;;;8.02;2.38;;;16.60;61.00;;;;;;5051488;28;20171;-63
2023/12/11 09:01:57;;;;;;;5.07;2.25;;;16.60;61.00;;;;;;5051223;28;20179;-63
2023/12/11 09:04:23;;;;;;;5.05;2.00;;;16.60;61.00;;;;;;5051607;28;20175;-63
2023/12/11 09:06:48;;;;;;;4.05;2.00;;;16.60;61.00;;;;;;5051629;28;20175;-63
2023/12/11 09:09:14;;;;;;;7.22;2.00;;;16.60;61.90;;;;;;5050720;28;20179;-64
2023/12/11 09:11:39;;;;;;;6.25;2.58;;;16.60;61.10;;;;;;5051483;28;20696;-63
2023/12/11 09:14:05;;;;;;;5.95;2.15;;;16.60;61.90;;;;;;5051747;28;20171;-62
2023/12/11 09:16:31;;;;;;;6.25;2.80;;;16.50;61.10;;;;;;5050600;28;20178;-62
2023/12/11 09:18:56;;;;;;;4.80;1.98;;;16.50;61.20;;;;;;5051659;28;20179;-62
2023/12/11 09:21:22;;;;;;;3.65;1.85;;;16.60;61.20;;;;;;5051298;28;20634;-62
2023/12/11 09:23:48;;;;;;;8.32;2.63;;;16.50;61.30;;;;;;5050979;28;20213;-62
2023/12/11 09:26:13;;;;;;;2.75;1.65;;;16.60;62.10;;;;;;5053780;28;20248;-63
2023/12/11 09:28:39;;;;;;;4.50;1.98;;;16.50;61.10;;;;;;5054761;28;20661;-63
2023/12/11 09:31:05;;;;;;;5.65;1.83;;;16.60;61.20;;;;;;5055443;28;20417;-63
2023/12/11 09:33:31;;;;;;;4.90;1.85;;;16.60;61.20;;;;;;5055100;28;20175;-63
2023/12/11 09:35:57;;;;;;;3.58;1.70;;;16.50;61.20;;;;;;5054586;28;20179;-62
2023/12/11 09:38:23;;;;;;;4.35;2.00;;;16.50;61.00;;;;;;5054932;28;20199;-62
2023/12/11 09:40:48;;;;;;;3.85;1.90;;;16.50;62.00;;;;;;5054959;28;20254;-62
2023/12/11 09:43:14;;;;;;;4.28;1.85;;;16.50;61.30;;;;;;5054036;28;20221;-62
2023/12/11 09:45:39;;;;;;;4.75;1.45;;;16.50;62.20;;;;;;5037349;28;20175;-63
2023/12/11 09:48:05;;;;;;;3.83;1.60;;;16.50;61.60;;;;;;5053912;28;20664;-63
2023/12/11 09:50:31;;;;;;;5.10;1.95;;;16.40;61.50;;;;;;5053835;28;20203;-63
2023/12/11 09:52:56;;;;;;;4.07;1.55;;;16.50;61.40;;;;;;5053741;28;20218;-63
2023/12/11 09:55:22;;;;;;;3.95;1.73;;;16.50;61.40;;;;;;5054343;28;20254;-62
2023/12/11 09:57:47;;;;;;;4.32;2.28;;;16.50;61.30;;;;;;5054282;28;20233;-62
2023/12/11 10:00:13;;;;;;;2.58;1.52;;;16.50;61.30;;;;;;5053673;28;20179;-62
2023/12/11 10:02:40;;;;;;;3.67;1.70;;;16.40;61.20;;;;;;5036904;28;20171;-62
2023/12/11 10:05:09;;;;;;;4.50;2.00;;;16.50;62.20;;;;;;5054127;28;20262;-62
2023/12/11 10:07:44;;;;;;;2.92;1.50;;;16.50;61.40;;;;;;5054289;28;20179;-62
2023/12/11 10:10:25;;;;;;;3.75;1.45;;;16.40;61.60;;;;;;5054402;28;20217;-62
2023/12/11 10:12:51;;;;;;;4.43;1.83;;;16.50;61.70;;;;;;5054000;28;20551;-62
2023/12/11 10:15:20;;;;;;;5.35;1.83;;;16.40;61.90;;;;;;5054092;28;20714;-61
2023/12/11 10:17:46;;;;;;;4.78;1.80;;;16.40;61.90;;;;;;5053794;28;20533;-62
2023/12/11 10:20:16;;;;;;;3.55;1.63;;;16.40;61.90;;;;;;5054204;28;20213;-61
2023/12/11 10:22:41;;;;;;;4.60;1.67;;;16.40;61.90;;;;;;5054455;28;20183;-62
2023/12/11 10:25:07;;;;;;;3.33;1.55;;;16.40;62.90;;;;;;5053550;28;20987;-62
2023/12/11 10:27:33;;;;;;;3.20;1.60;;;16.40;62.80;;;;;;5053888;28;20183;-62
2023/12/11 10:30:12;;;;;;;5.68;1.70;;;16.30;61.90;;;;;;5054079;28;20215;-62
2023/12/11 10:32:40;;;;;;;2.78;1.42;;;16.30;62.00;;;;;;5053089;28;20551;-62
2023/12/11 10:35:07;;;;;;;3.47;1.85;;;16.30;62.00;;;;;;5053924;28;20183;-62
2023/12/11 10:37:34;;;;;;;3.88;1.73;;;16.30;61.90;;;;;;5053841;28;20254;-62
2023/12/11 10:40:00;;;;;;;6.22;1.60;;;16.30;62.70;;;;;;5053398;28;20195;-61
2023/12/11 10:42:26;;;;;;;2.50;1.40;;;16.30;61.80;;;;;;5053818;28;20183;-62
2023/12/11 10:44:53;;;;;;;3.28;1.80;;;16.30;62.70;;;;;;5053976;28;20262;-62
2023/12/11 10:47:18;;;;;;;2.13;1.27;;;16.30;61.80;;;;;;5052836;28;20248;-62
2023/12/11 10:49:44;;;;;;;5.05;1.85;;;16.20;61.70;;;;;;5052458;28;20662;-62
2023/12/11 10:52:10;;;;;;;2.97;1.50;;;16.20;61.60;;;;;;5054004;28;20176;-62
2023/12/11 10:54:37;;;;;;;4.45;1.73;;;16.30;61.60;;;;;;5052714;28;20254;-63
2023/12/11 10:57:03;;;;;;;2.25;1.50;;;16.20;61.50;;;;;;5053725;28;20226;-62
2023/12/11 10:59:29;;;;;;;1.73;1.35;;;16.30;61.70;;;;;;5035502;28;20175;-62
2023/12/11 11:01:55;;;;;;;3.42;1.50;;;16.20;61.50;;;;;;5052170;28;20341;-62
2023/12/11 11:04:21;;;;;;;5.53;2.63;;;16.20;61.40;;;;;;5052279;28;20542;-62
2023/12/11 11:06:51;;;;;;;6.32;2.20;;;16.30;61.90;;;;;;5050576;28;20661;-62
2023/12/11 11:09:29;;;;;;;4.95;1.70;;;16.20;61.60;;;;;;5035283;28;20325;-63
2023/12/11 11:12:03;;;;;;;3.28;1.42;;;16.30;61.60;;;;;;5036695;28;20290;-62
2023/12/11 11:14:45;;;;;;;5.30;1.80;;;16.30;61.40;;;;;;5051225;28;20194;-62
2023/12/11 11:17:11;;;;;;;5.20;1.85;;;16.30;61.40;;;;;;5053529;28;20286;-62
2023/12/11 11:19:37;;;;;;;4.57;1.90;;;16.20;62.20;;;;;;5052797;28;20194;-61
2023/12/11 11:22:06;;;;;;;4.07;1.48;;;16.30;61.90;;;;;;5051157;28;20178;-65
2023/12/11 11:24:34;;;;;;;2.92;1.40;;;16.30;61.80;;;;;;5052893;28;20605;-65
2023/12/11 11:27:04;;;;;;;3.97;1.85;;;16.30;61.40;;;;;;5052984;28;20250;-65
2023/12/11 11:29:42;;;;;;;6.18;2.33;;;16.40;61.30;;;;;;5052093;28;20251;-67
2023/12/11 11:32:08;;;;;;;4.18;1.70;;;16.40;61.20;;;;;;5052992;28;20183;-66
2023/12/11 11:34:40;;;;;;;4.63;1.80;;;16.30;61.20;;;;;;5052671;28;20222;-66
2023/12/11 11:37:11;;;;;;;4.10;1.58;;;16.40;61.20;;;;;;5052063;28;20233;-65
2023/12/11 11:40:02;;;;;;;5.50;1.95;;;16.40;61.10;;;;;;5052434;28;20221;-65
2023/12/11 11:42:31;;;;;;;2.28;1.40;;;16.40;61.10;;;;;;5051788;28;20171;-65
2023/12/11 11:45:02;;;;;;;4.80;1.77;;;16.40;61.00;;;;;;5052748;28;20175;-64
2023/12/11 11:47:28;;;;;;;4.75;1.73;;;16.50;61.00;;;;;;5052076;28;20209;-64
2023/12/11 11:49:54;;;;;;;3.63;2.03;;;16.50;60.90;;;;;;5051623;28;20207;-64
2023/12/11 11:52:22;;;;;;;5.07;1.67;;;16.50;61.20;;;;;;5051534;28;20175;-64
2023/12/11 11:54:48;;;;;;;3.05;1.42;;;16.50;61.20;;;;;;5050149;28;20284;-64
2023/12/11 11:57:13;;;;;;;4.72;1.60;;;16.50;61.10;;;;;;5032976;28;20540;-64
2023/12/11 11:59:45;;;;;;;5.35;1.73;;;16.60;61.10;;;;;;5052067;28;20171;-67
2023/12/11 12:02:10;;;;;;;4.13;1.75;;;16.60;61.10;;;;;;5052481;28;20183;-61
2023/12/11 12:04:36;;;;;;;5.25;1.92;;;16.60;61.30;;;;;;5051173;28;20171;-61
2023/12/11 12:07:05;;;;;;;4.03;1.65;;;16.60;61.10;;;;;;5052515;28;20175;-62
2023/12/11 12:09:31;;;;;;;4.15;1.52;;;16.50;61.20;;;;;;5051933;28;20702;-62
2023/12/11 12:12:00;;;;;;;3.92;1.50;;;16.60;61.10;;;;;;5051557;28;20183;-61
2023/12/11 12:14:25;;;;;;;4.00;1.52;;;16.50;61.30;;;;;;5051601;28;20644;-61
2023/12/11 12:16:52;;;;;;;4.80;1.58;;;16.60;61.30;;;;;;5051875;28;20261;-61
2023/12/11 12:19:28;;;;;;;4.25;1.33;;;16.60;61.20;;;;;;5051126;28;20707;-61
2023/12/11 12:21:58;;;;;;;5.95;1.77;;;16.60;61.40;;;;;;5051191;28;20186;-62
2023/12/11 12:24:24;;;;;;;4.68;1.38;;;16.60;61.40;;;;;;5051105;28;20257;-64
2023/12/11 12:26:54;;;;;;;6.60;1.77;;;16.60;61.10;;;;;;5052271;28;20270;-64
2023/12/11 12:29:20;;;;;;;4.05;1.52;;;16.60;61.10;;;;;;5034273;28;20618;-64
2023/12/11 12:31:45;;;;;;;4.20;1.90;;;16.50;61.10;;;;;;5051107;28;20215;-65
2023/12/11 12:34:11;;;;;;;3.45;1.88;;;16.50;61.00;;;;;;5034352;28;20167;-65
2023/12/11 12:36:37;;;;;;;4.10;1.65;;;16.60;61.00;;;;;;5050402;28;20205;-64
2023/12/11 12:39:04;;;;;;;7.32;2.17;;;16.50;60.90;;;;;;5051256;28;20171;-64
2023/12/11 12:41:30;;;;;;;5.80;1.95;;;16.50;61.10;;;;;;5050432;28;20190;-62